Genuine Hercules — 9V9468 — position and weather

sailwx.info

Track history (hours):
 
Tides and Currents Weather Stations Pressure Air Temp Water Temp Dewpoint Dewpoint Depression Visibility Wind Speed Wind Dir Waves Ship Positions

Genuine Hercules

Last reported at 2017-Dec-08 20:51 UTC. Time now 2017-Dec-12 15:56 UTC.
Position N 01°14' E 103°56'.

Length 171 m; draft 11.4 m.

Type: Ship (hazmat cat C). MMSI: 566851000.

Date/timePositionNaut miles runAvg speedWind from/ knotsBaromVisibWave heightAir tempDewpointWater temp
2017-Dec-08 20:51N 01°14' E 103°56'512.6
2017-Dec-08 20:28N 01°11' E 103°52'611.8
2017-Dec-08 20:00N 01°09' E 103°47'611.9
2017-Dec-08 19:30N 01°04' E 103°43'612.0
2017-Dec-08 18:58N 01°03' E 103°37'613.0
2017-Dec-08 18:30N 01°08' E 103°33'510.6
2017-Dec-08 18:00N 01°11' E 103°37'3 6.7
2017-Dec-08 17:31N 01°13' E 103°40'2 3.3
2017-Dec-08 17:00N 01°13' E 103°38'0 0.2
2017-Dec-08 16:22N 01°13' E 103°38'0 0.0
2017-Dec-08 15:55N 01°13' E 103°38'0 0.0
2017-Dec-08 15:25N 01°13' E 103°38'0 0.0
2017-Dec-08 14:58N 01°13' E 103°38'0 0.0
2017-Dec-08 14:28N 01°13' E 103°38'0 0.0
2017-Dec-08 13:55N 01°13' E 103°38'0 0.1
2017-Dec-08 13:28N 01°13' E 103°38'0 0.1
2017-Dec-08 12:49N 01°13' E 103°38'0 0.1
2017-Dec-08 12:01N 01°13' E 103°38'0 0.0
2017-Dec-08 11:46N 01°13' E 103°38'0 0.0
2017-Dec-08 11:28N 01°13' E 103°38'0 0.0
2017-Dec-08 10:58N 01°13' E 103°38'0 0.1
2017-Dec-08 10:28N 01°13' E 103°38'0 0.0
2017-Dec-08 09:58N 01°13' E 103°38'0 0.0
2017-Dec-08 09:28N 01°13' E 103°38'0 0.0
2017-Dec-08 08:58N 01°13' E 103°38'0 0.1
2017-Dec-08 08:28N 01°13' E 103°38'0 0.0
2017-Dec-08 07:52N 01°13' E 103°38'0 0.0
2017-Dec-08 07:28N 01°13' E 103°38'0 0.1
2017-Dec-08 06:55N 01°13' E 103°38'1 1.5
2017-Dec-08 06:31N 01°13' E 103°39'3 5.9
2017-Dec-08 06:01N 01°12' E 103°36'2 4.0
2017-Dec-08 05:30N 01°12' E 103°34'4 7.9
2017-Dec-08 04:59N 01°09' E 103°31'4 7.8
2017-Dec-08 04:30N 01°10' E 103°27'7 8.6
2017-Dec-08 03:39N 01°15' E 103°21'1 7.1
2017-Dec-08 03:28N 01°15' E 103°20'  
Track history (hours):
 
Tides and Currents Weather Stations Pressure Air Temp Water Temp Dewpoint Dewpoint Depression Visibility Wind Speed Wind Dir Waves Ship Positions

Genuine Hercules

Last reported at 2017-Dec-08 20:51 UTC. Time now 2017-Dec-12 15:56 UTC.
Position N 01°14' E 103°56'.

Length 171 m; draft 11.4 m.

Type: Ship (hazmat cat C). MMSI: 566851000.

Date/timePositionNaut miles runAvg speedWind from/ knotsBaromVisibWave heightAir tempDewpointWater temp
2017-Dec-08 20:51N 01°14' E 103°56'512.6
2017-Dec-08 20:28N 01°11' E 103°52'611.8
2017-Dec-08 20:00N 01°09' E 103°47'611.9
2017-Dec-08 19:30N 01°04' E 103°43'612.0
2017-Dec-08 18:58N 01°03' E 103°37'613.0
2017-Dec-08 18:30N 01°08' E 103°33'510.6
2017-Dec-08 18:00N 01°11' E 103°37'3 6.7
2017-Dec-08 17:31N 01°13' E 103°40'2 3.3
2017-Dec-08 17:00N 01°13' E 103°38'0 0.2
2017-Dec-08 16:22N 01°13' E 103°38'0 0.0
2017-Dec-08 15:55N 01°13' E 103°38'0 0.0
2017-Dec-08 15:25N 01°13' E 103°38'0 0.0
2017-Dec-08 14:58N 01°13' E 103°38'0 0.0
2017-Dec-08 14:28N 01°13' E 103°38'0 0.0
2017-Dec-08 13:55N 01°13' E 103°38'0 0.1
2017-Dec-08 13:28N 01°13' E 103°38'0 0.1
2017-Dec-08 12:49N 01°13' E 103°38'0 0.1
2017-Dec-08 12:01N 01°13' E 103°38'0 0.0
2017-Dec-08 11:46N 01°13' E 103°38'0 0.0
2017-Dec-08 11:28N 01°13' E 103°38'0 0.0
2017-Dec-08 10:58N 01°13' E 103°38'0 0.1
2017-Dec-08 10:28N 01°13' E 103°38'0 0.0
2017-Dec-08 09:58N 01°13' E 103°38'0 0.0
2017-Dec-08 09:28N 01°13' E 103°38'0 0.0
2017-Dec-08 08:58N 01°13' E 103°38'0 0.1
2017-Dec-08 08:28N 01°13' E 103°38'0 0.0
2017-Dec-08 07:52N 01°13' E 103°38'0 0.0
2017-Dec-08 07:28N 01°13' E 103°38'0 0.1
2017-Dec-08 06:55N 01°13' E 103°38'1 1.5
2017-Dec-08 06:31N 01°13' E 103°39'3 5.9
2017-Dec-08 06:01N 01°12' E 103°36'2 4.0
2017-Dec-08 05:30N 01°12' E 103°34'4 7.9
2017-Dec-08 04:59N 01°09' E 103°31'4 7.8
2017-Dec-08 04:30N 01°10' E 103°27'7 8.6
2017-Dec-08 03:39N 01°15' E 103°21'1 7.1
2017-Dec-08 03:28N 01°15' E 103°20'  

Dump ship's entire track history